sensor_id;sensor_type;location;lat;lon;timestamp;P1;durP1;ratioP1;P2;durP2;ratioP2
11777;SDS011;5946;51.770;8.548;2022-09-24T00:01:12;16.97;;;15.23;;
11777;SDS011;5946;51.770;8.548;2022-09-24T00:03:40;16.70;;;14.97;;
11777;SDS011;5946;51.770;8.548;2022-09-24T00:06:06;16.27;;;14.57;;
11777;SDS011;5946;51.770;8.548;2022-09-24T00:08:33;15.87;;;14.33;;
11777;SDS011;5946;51.770;8.548;2022-09-24T00:11:05;17.87;;;14.30;;
11777;SDS011;5946;51.770;8.548;2022-09-24T00:13:32;15.57;;;13.97;;
11777;SDS011;5946;51.770;8.548;2022-09-24T00:16:06;14.30;;;12.83;;
11777;SDS011;5946;51.770;8.548;2022-09-24T00:18:32;15.03;;;13.07;;
11777;SDS011;5946;51.770;8.548;2022-09-24T00:20:59;14.07;;;12.57;;
11777;SDS011;5946;51.770;8.548;2022-09-24T00:23:25;13.57;;;12.37;;
11777;SDS011;5946;51.770;8.548;2022-09-24T00:25:51;13.63;;;12.23;;
11777;SDS011;5946;51.770;8.548;2022-09-24T00:28:36;15.83;;;11.67;;
11777;SDS011;5946;51.770;8.548;2022-09-24T00:31:03;14.93;;;12.30;;
11777;SDS011;5946;51.770;8.548;2022-09-24T00:33:31;12.47;;;10.87;;
11777;SDS011;5946;51.770;8.548;2022-09-24T00:35:59;12.17;;;10.97;;
11777;SDS011;5946;51.770;8.548;2022-09-24T00:38:28;12.47;;;11.07;;
11777;SDS011;5946;51.770;8.548;2022-09-24T00:40:55;13.30;;;11.90;;
11777;SDS011;5946;51.770;8.548;2022-09-24T00:45:47;11.47;;;10.30;;
11777;SDS011;5946;51.770;8.548;2022-09-24T00:48:13;12.67;;;11.20;;
11777;SDS011;5946;51.770;8.548;2022-09-24T00:50:39;12.23;;;11.03;;
11777;SDS011;5946;51.770;8.548;2022-09-24T00:53:07;11.77;;;10.57;;
11777;SDS011;5946;51.770;8.548;2022-09-24T00:55:34;13.13;;;11.73;;
11777;SDS011;5946;51.770;8.548;2022-09-24T00:58:02;12.40;;;11.10;;
11777;SDS011;5946;51.770;8.548;2022-09-24T01:00:29;11.43;;;10.33;;
11777;SDS011;5946;51.770;8.548;2022-09-24T01:02:57;12.83;;;11.53;;
11777;SDS011;5946;51.770;8.548;2022-09-24T01:05:29;12.27;;;10.97;;
11777;SDS011;5946;51.770;8.548;2022-09-24T01:07:55;11.60;;;10.43;;
11777;SDS011;5946;51.770;8.548;2022-09-24T01:10:24;11.80;;;10.70;;
11777;SDS011;5946;51.770;8.548;2022-09-24T01:13:36;12.13;;;10.80;;
11777;SDS011;5946;51.770;8.548;2022-09-24T01:16:01;12.80;;;10.63;;
11777;SDS011;5946;51.770;8.548;2022-09-24T01:18:39;12.33;;;10.60;;
11777;SDS011;5946;51.770;8.548;2022-09-24T01:21:17;11.53;;;10.33;;
11777;SDS011;5946;51.770;8.548;2022-09-24T01:23:53;12.83;;;11.37;;
11777;SDS011;5946;51.770;8.548;2022-09-24T01:31:38;13.63;;;11.30;;
11777;SDS011;5946;51.770;8.548;2022-09-24T01:34:05;12.30;;;11.07;;
11777;SDS011;5946;51.770;8.548;2022-09-24T01:36:33;12.97;;;11.67;;
11777;SDS011;5946;51.770;8.548;2022-09-24T01:38:59;12.33;;;11.10;;
11777;SDS011;5946;51.770;8.548;2022-09-24T01:41:26;12.37;;;11.03;;
11777;SDS011;5946;51.770;8.548;2022-09-24T01:43:52;11.20;;;10.13;;
11777;SDS011;5946;51.770;8.548;2022-09-24T01:46:19;15.47;;;11.40;;
11777;SDS011;5946;51.770;8.548;2022-09-24T01:48:45;12.17;;;10.73;;
11777;SDS011;5946;51.770;8.548;2022-09-24T01:51:20;16.57;;;11.87;;
11777;SDS011;5946;51.770;8.548;2022-09-24T01:53:50;11.50;;;10.23;;
11777;SDS011;5946;51.770;8.548;2022-09-24T01:56:29;11.47;;;9.97;;
11777;SDS011;5946;51.770;8.548;2022-09-24T02:01:24;11.00;;;9.93;;
11777;SDS011;5946;51.770;8.548;2022-09-24T02:03:56;13.23;;;11.07;;
11777;SDS011;5946;51.770;8.548;2022-09-24T02:06:33;11.53;;;10.43;;
11777;SDS011;5946;51.770;8.548;2022-09-24T02:09:00;11.00;;;9.90;;
11777;SDS011;5946;51.770;8.548;2022-09-24T02:11:26;11.17;;;10.07;;
11777;SDS011;5946;51.770;8.548;2022-09-24T02:13:56;12.20;;;11.00;;
11777;SDS011;5946;51.770;8.548;2022-09-24T02:16:39;13.13;;;11.10;;
11777;SDS011;5946;51.770;8.548;2022-09-24T02:19:07;13.33;;;11.17;;
11777;SDS011;5946;51.770;8.548;2022-09-24T02:21:35;12.40;;;11.10;;
11777;SDS011;5946;51.770;8.548;2022-09-24T02:24:18;11.43;;;10.33;;
11777;SDS011;5946;51.770;8.548;2022-09-24T02:26:45;12.23;;;11.03;;
11777;SDS011;5946;51.770;8.548;2022-09-24T02:29:11;13.00;;;11.67;;
11777;SDS011;5946;51.770;8.548;2022-09-24T02:31:41;11.80;;;10.60;;
11777;SDS011;5946;51.770;8.548;2022-09-24T02:34:09;13.07;;;10.67;;
11777;SDS011;5946;51.770;8.548;2022-09-24T02:37:05;11.90;;;10.70;;
11777;SDS011;5946;51.770;8.548;2022-09-24T02:39:33;15.23;;;12.17;;
11777;SDS011;5946;51.770;8.548;2022-09-24T02:42:00;14.77;;;11.07;;
11777;SDS011;5946;51.770;8.548;2022-09-24T02:44:27;12.27;;;10.93;;
11777;SDS011;5946;51.770;8.548;2022-09-24T02:46:55;10.67;;;9.43;;
11777;SDS011;5946;51.770;8.548;2022-09-24T02:49:20;13.33;;;11.27;;
11777;SDS011;5946;51.770;8.548;2022-09-24T02:51:46;11.03;;;10.03;;
11777;SDS011;5946;51.770;8.548;2022-09-24T02:54:12;13.10;;;11.20;;
11777;SDS011;5946;51.770;8.548;2022-09-24T02:56:39;12.33;;;11.03;;
11777;SDS011;5946;51.770;8.548;2022-09-24T02:59:05;12.17;;;10.97;;
11777;SDS011;5946;51.770;8.548;2022-09-24T03:01:32;11.77;;;10.57;;
11777;SDS011;5946;51.770;8.548;2022-09-24T03:03:58;12.87;;;10.97;;
11777;SDS011;5946;51.770;8.548;2022-09-24T03:06:24;10.97;;;9.97;;
11777;SDS011;5946;51.770;8.548;2022-09-24T03:08:52;11.97;;;10.77;;
11777;SDS011;5946;51.770;8.548;2022-09-24T03:11:19;12.23;;;10.93;;
11777;SDS011;5946;51.770;8.548;2022-09-24T03:13:48;13.30;;;10.70;;
11777;SDS011;5946;51.770;8.548;2022-09-24T03:16:15;14.20;;;12.13;;
11777;SDS011;5946;51.770;8.548;2022-09-24T03:18:43;13.67;;;12.00;;
11777;SDS011;5946;51.770;8.548;2022-09-24T03:21:12;13.33;;;11.50;;
11777;SDS011;5946;51.770;8.548;2022-09-24T03:23:39;13.30;;;11.97;;
11777;SDS011;5946;51.770;8.548;2022-09-24T03:26:05;12.93;;;11.63;;
11777;SDS011;5946;51.770;8.548;2022-09-24T03:28:31;13.57;;;12.23;;
11777;SDS011;5946;51.770;8.548;2022-09-24T03:30:57;12.97;;;11.67;;
11777;SDS011;5946;51.770;8.548;2022-09-24T03:33:23;13.60;;;12.20;;
11777;SDS011;5946;51.770;8.548;2022-09-24T03:35:53;14.30;;;12.83;;
11777;SDS011;5946;51.770;8.548;2022-09-24T03:38:21;13.07;;;11.77;;
11777;SDS011;5946;51.770;8.548;2022-09-24T03:40:48;13.37;;;11.97;;
11777;SDS011;5946;51.770;8.548;2022-09-24T03:43:14;13.73;;;11.33;;
11777;SDS011;5946;51.770;8.548;2022-09-24T03:45:42;14.50;;;13.00;;
11777;SDS011;5946;51.770;8.548;2022-09-24T03:48:08;13.17;;;11.87;;
11777;SDS011;5946;51.770;8.548;2022-09-24T03:50:37;15.83;;;14.23;;
11777;SDS011;5946;51.770;8.548;2022-09-24T03:53:12;14.20;;;12.80;;
11777;SDS011;5946;51.770;8.548;2022-09-24T03:55:45;14.60;;;12.83;;
11777;SDS011;5946;51.770;8.548;2022-09-24T03:58:12;14.00;;;12.50;;
11777;SDS011;5946;51.770;8.548;2022-09-24T04:00:45;14.37;;;12.40;;
11777;SDS011;5946;51.770;8.548;2022-09-24T04:03:13;14.27;;;12.70;;
11777;SDS011;5946;51.770;8.548;2022-09-24T04:05:45;14.00;;;12.60;;
11777;SDS011;5946;51.770;8.548;2022-09-24T04:08:11;13.93;;;12.47;;
11777;SDS011;5946;51.770;8.548;2022-09-24T04:10:37;14.90;;;12.63;;
11777;SDS011;5946;51.770;8.548;2022-09-24T04:13:05;14.67;;;13.07;;
11777;SDS011;5946;51.770;8.548;2022-09-24T04:15:31;15.63;;;13.17;;
11777;SDS011;5946;51.770;8.548;2022-09-24T04:17:57;14.00;;;12.60;;
11777;SDS011;5946;51.770;8.548;2022-09-24T04:20:24;15.57;;;12.60;;
11777;SDS011;5946;51.770;8.548;2022-09-24T04:22:51;16.40;;;12.63;;
11777;SDS011;5946;51.770;8.548;2022-09-24T04:25:17;13.50;;;12.10;;
11777;SDS011;5946;51.770;8.548;2022-09-24T04:27:43;15.73;;;12.97;;
11777;SDS011;5946;51.770;8.548;2022-09-24T04:30:10;19.13;;;13.00;;
11777;SDS011;5946;51.770;8.548;2022-09-24T04:32:37;13.40;;;12.10;;
11777;SDS011;5946;51.770;8.548;2022-09-24T04:35:03;14.23;;;11.90;;
11777;SDS011;5946;51.770;8.548;2022-09-24T04:37:29;13.67;;;12.27;;
11777;SDS011;5946;51.770;8.548;2022-09-24T04:39:55;16.43;;;12.87;;
11777;SDS011;5946;51.770;8.548;2022-09-24T04:42:21;13.70;;;12.27;;
11777;SDS011;5946;51.770;8.548;2022-09-24T04:44:46;14.17;;;12.47;;
11777;SDS011;5946;51.770;8.548;2022-09-24T04:47:13;18.30;;;13.90;;
11777;SDS011;5946;51.770;8.548;2022-09-24T04:49:39;13.63;;;12.23;;
11777;SDS011;5946;51.770;8.548;2022-09-24T04:52:09;14.63;;;13.17;;
11777;SDS011;5946;51.770;8.548;2022-09-24T04:54:36;16.67;;;13.33;;
11777;SDS011;5946;51.770;8.548;2022-09-24T04:57:02;15.50;;;13.87;;
11777;SDS011;5946;51.770;8.548;2022-09-24T04:59:28;15.10;;;13.50;;
11777;SDS011;5946;51.770;8.548;2022-09-24T05:01:54;19.53;;;14.70;;
11777;SDS011;5946;51.770;8.548;2022-09-24T05:04:20;20.83;;;14.63;;
11777;SDS011;5946;51.770;8.548;2022-09-24T05:06:45;17.27;;;14.70;;
11777;SDS011;5946;51.770;8.548;2022-09-24T05:09:12;19.00;;;16.13;;
11777;SDS011;5946;51.770;8.548;2022-09-24T05:11:38;17.13;;;15.17;;
11777;SDS011;5946;51.770;8.548;2022-09-24T05:14:04;15.67;;;14.13;;
11777;SDS011;5946;51.770;8.548;2022-09-24T05:16:30;19.27;;;16.67;;
11777;SDS011;5946;51.770;8.548;2022-09-24T05:18:56;17.33;;;15.53;;
11777;SDS011;5946;51.770;8.548;2022-09-24T05:21:22;19.97;;;15.77;;
11777;SDS011;5946;51.770;8.548;2022-09-24T05:23:48;17.23;;;15.53;;
11777;SDS011;5946;51.770;8.548;2022-09-24T05:26:14;18.87;;;16.87;;
11777;SDS011;5946;51.770;8.548;2022-09-24T05:28:58;18.57;;;15.20;;
11777;SDS011;5946;51.770;8.548;2022-09-24T05:31:24;20.50;;;15.93;;
11777;SDS011;5946;51.770;8.548;2022-09-24T05:33:50;21.37;;;16.67;;
11777;SDS011;5946;51.770;8.548;2022-09-24T05:36:16;16.80;;;15.00;;
11777;SDS011;5946;51.770;8.548;2022-09-24T05:38:43;20.13;;;15.73;;
11777;SDS011;5946;51.770;8.548;2022-09-24T05:41:09;17.67;;;15.70;;
11777;SDS011;5946;51.770;8.548;2022-09-24T05:43:35;17.33;;;15.23;;
11777;SDS011;5946;51.770;8.548;2022-09-24T05:46:01;18.27;;;15.47;;
11777;SDS011;5946;51.770;8.548;2022-09-24T05:48:28;18.23;;;15.67;;
11777;SDS011;5946;51.770;8.548;2022-09-24T05:50:54;23.67;;;19.97;;
11777;SDS011;5946;51.770;8.548;2022-09-24T05:53:20;23.40;;;17.47;;
11777;SDS011;5946;51.770;8.548;2022-09-24T05:55:47;22.50;;;16.53;;
11777;SDS011;5946;51.770;8.548;2022-09-24T05:58:13;23.97;;;16.77;;
11777;SDS011;5946;51.770;8.548;2022-09-24T06:00:39;20.47;;;16.97;;
11777;SDS011;5946;51.770;8.548;2022-09-24T06:03:07;25.63;;;16.60;;
11777;SDS011;5946;51.770;8.548;2022-09-24T06:05:35;24.90;;;17.10;;
11777;SDS011;5946;51.770;8.548;2022-09-24T06:08:02;20.23;;;17.33;;
11777;SDS011;5946;51.770;8.548;2022-09-24T06:10:28;21.97;;;16.60;;
11777;SDS011;5946;51.770;8.548;2022-09-24T06:12:54;20.07;;;16.83;;
11777;SDS011;5946;51.770;8.548;2022-09-24T06:15:20;23.07;;;16.33;;
11777;SDS011;5946;51.770;8.548;2022-09-24T06:17:46;22.27;;;16.87;;
11777;SDS011;5946;51.770;8.548;2022-09-24T06:20:12;20.97;;;17.00;;
11777;SDS011;5946;51.770;8.548;2022-09-24T06:22:39;18.03;;;16.23;;
11777;SDS011;5946;51.770;8.548;2022-09-24T06:25:05;18.20;;;15.73;;
11777;SDS011;5946;51.770;8.548;2022-09-24T06:27:31;20.30;;;16.77;;
11777;SDS011;5946;51.770;8.548;2022-09-24T06:29:57;20.73;;;16.53;;
11777;SDS011;5946;51.770;8.548;2022-09-24T06:32:23;20.30;;;17.83;;
11777;SDS011;5946;51.770;8.548;2022-09-24T06:34:49;22.07;;;16.63;;
11777;SDS011;5946;51.770;8.548;2022-09-24T06:37:15;24.40;;;20.20;;
11777;SDS011;5946;51.770;8.548;2022-09-24T06:39:41;24.30;;;19.77;;
11777;SDS011;5946;51.770;8.548;2022-09-24T06:42:07;25.67;;;21.73;;
11777;SDS011;5946;51.770;8.548;2022-09-24T06:44:34;27.17;;;21.57;;
11777;SDS011;5946;51.770;8.548;2022-09-24T06:47:00;25.83;;;22.33;;
11777;SDS011;5946;51.770;8.548;2022-09-24T06:49:26;29.90;;;23.43;;
11777;SDS011;5946;51.770;8.548;2022-09-24T06:51:53;31.87;;;25.80;;
11777;SDS011;5946;51.770;8.548;2022-09-24T06:54:19;30.03;;;23.73;;
11777;SDS011;5946;51.770;8.548;2022-09-24T06:56:46;30.07;;;23.77;;
11777;SDS011;5946;51.770;8.548;2022-09-24T06:59:12;28.40;;;23.87;;
11777;SDS011;5946;51.770;8.548;2022-09-24T07:01:38;30.13;;;24.87;;
11777;SDS011;5946;51.770;8.548;2022-09-24T07:04:04;34.57;;;25.37;;
11777;SDS011;5946;51.770;8.548;2022-09-24T07:06:30;31.67;;;25.23;;
11777;SDS011;5946;51.770;8.548;2022-09-24T07:09:16;29.60;;;26.43;;
11777;SDS011;5946;51.770;8.548;2022-09-24T07:11:42;35.60;;;27.93;;
11777;SDS011;5946;51.770;8.548;2022-09-24T07:14:10;35.83;;;27.40;;
11777;SDS011;5946;51.770;8.548;2022-09-24T07:16:36;31.40;;;27.60;;
11777;SDS011;5946;51.770;8.548;2022-09-24T07:19:02;37.33;;;29.10;;
11777;SDS011;5946;51.770;8.548;2022-09-24T07:21:28;40.13;;;30.10;;
11777;SDS011;5946;51.770;8.548;2022-09-24T07:23:54;33.83;;;28.50;;
11777;SDS011;5946;51.770;8.548;2022-09-24T07:26:20;38.87;;;29.17;;
11777;SDS011;5946;51.770;8.548;2022-09-24T07:28:46;38.33;;;29.63;;
11777;SDS011;5946;51.770;8.548;2022-09-24T07:31:12;30.67;;;26.43;;
11777;SDS011;5946;51.770;8.548;2022-09-24T07:33:38;35.00;;;28.37;;
11777;SDS011;5946;51.770;8.548;2022-09-24T07:36:04;40.17;;;30.43;;
11777;SDS011;5946;51.770;8.548;2022-09-24T07:38:31;35.33;;;29.83;;
11777;SDS011;5946;51.770;8.548;2022-09-24T07:40:57;32.47;;;27.47;;
11777;SDS011;5946;51.770;8.548;2022-09-24T07:43:23;34.47;;;27.77;;
11777;SDS011;5946;51.770;8.548;2022-09-24T07:45:52;35.73;;;27.63;;
11777;SDS011;5946;51.770;8.548;2022-09-24T07:48:19;35.77;;;25.90;;
11777;SDS011;5946;51.770;8.548;2022-09-24T07:50:45;32.37;;;26.97;;
11777;SDS011;5946;51.770;8.548;2022-09-24T07:53:11;27.67;;;24.53;;
11777;SDS011;5946;51.770;8.548;2022-09-24T07:55:38;26.57;;;23.07;;
11777;SDS011;5946;51.770;8.548;2022-09-24T07:58:05;27.23;;;23.33;;
11777;SDS011;5946;51.770;8.548;2022-09-24T08:00:31;29.63;;;23.27;;
11777;SDS011;5946;51.770;8.548;2022-09-24T08:02:57;31.13;;;22.27;;
11777;SDS011;5946;51.770;8.548;2022-09-24T08:05:23;26.07;;;22.03;;
11777;SDS011;5946;51.770;8.548;2022-09-24T08:07:53;28.43;;;22.43;;
11777;SDS011;5946;51.770;8.548;2022-09-24T08:10:19;26.40;;;21.87;;
11777;SDS011;5946;51.770;8.548;2022-09-24T08:12:45;31.13;;;23.60;;
11777;SDS011;5946;51.770;8.548;2022-09-24T08:15:11;23.93;;;20.73;;
11777;SDS011;5946;51.770;8.548;2022-09-24T08:17:37;28.13;;;22.40;;
11777;SDS011;5946;51.770;8.548;2022-09-24T08:20:04;25.57;;;21.50;;
11777;SDS011;5946;51.770;8.548;2022-09-24T08:22:30;27.20;;;23.67;;
11777;SDS011;5946;51.770;8.548;2022-09-24T08:24:56;25.80;;;23.03;;
11777;SDS011;5946;51.770;8.548;2022-09-24T08:27:22;33.63;;;24.63;;
11777;SDS011;5946;51.770;8.548;2022-09-24T08:29:49;35.03;;;24.30;;
11777;SDS011;5946;51.770;8.548;2022-09-24T08:32:15;32.27;;;23.33;;
11777;SDS011;5946;51.770;8.548;2022-09-24T08:34:41;31.47;;;24.90;;
11777;SDS011;5946;51.770;8.548;2022-09-24T08:37:07;31.43;;;25.33;;
11777;SDS011;5946;51.770;8.548;2022-09-24T08:39:33;29.13;;;24.60;;
11777;SDS011;5946;51.770;8.548;2022-09-24T08:42:01;29.70;;;26.23;;
11777;SDS011;5946;51.770;8.548;2022-09-24T08:47:23;28.00;;;24.63;;
11777;SDS011;5946;51.770;8.548;2022-09-24T08:49:55;30.67;;;24.73;;
11777;SDS011;5946;51.770;8.548;2022-09-24T08:54:51;25.13;;;22.37;;
11777;SDS011;5946;51.770;8.548;2022-09-24T08:57:18;25.53;;;22.47;;
11777;SDS011;5946;51.770;8.548;2022-09-24T08:59:48;25.37;;;20.80;;
11777;SDS011;5946;51.770;8.548;2022-09-24T09:02:19;22.83;;;20.33;;
11777;SDS011;5946;51.770;8.548;2022-09-24T09:05:37;27.57;;;22.67;;
11777;SDS011;5946;51.770;8.548;2022-09-24T09:07:42;23.73;;;20.33;;
11777;SDS011;5946;51.770;8.548;2022-09-24T09:10:14;23.10;;;20.63;;
11777;SDS011;5946;51.770;8.548;2022-09-24T09:12:41;29.90;;;21.60;;
11777;SDS011;5946;51.770;8.548;2022-09-24T09:15:10;29.67;;;23.17;;
11777;SDS011;5946;51.770;8.548;2022-09-24T09:20:06;26.83;;;23.93;;
11777;SDS011;5946;51.770;8.548;2022-09-24T09:22:36;31.10;;;24.10;;
11777;SDS011;5946;51.770;8.548;2022-09-24T09:25:14;29.70;;;23.53;;
11777;SDS011;5946;51.770;8.548;2022-09-24T09:27:41;30.10;;;24.50;;
11777;SDS011;5946;51.770;8.548;2022-09-24T09:30:11;28.13;;;22.87;;
11777;SDS011;5946;51.770;8.548;2022-09-24T09:38:20;32.20;;;24.97;;
11777;SDS011;5946;51.770;8.548;2022-09-24T09:40:52;27.13;;;24.23;;
11777;SDS011;5946;51.770;8.548;2022-09-24T09:43:20;30.60;;;24.70;;
11777;SDS011;5946;51.770;8.548;2022-09-24T09:48:12;29.37;;;24.97;;
11777;SDS011;5946;51.770;8.548;2022-09-24T09:50:42;28.67;;;23.83;;
11777;SDS011;5946;51.770;8.548;2022-09-24T09:53:21;29.87;;;24.20;;
11777;SDS011;5946;51.770;8.548;2022-09-24T09:55:52;28.67;;;23.47;;
11777;SDS011;5946;51.770;8.548;2022-09-24T09:58:21;28.00;;;22.20;;
11777;SDS011;5946;51.770;8.548;2022-09-24T10:00:47;26.87;;;22.77;;
11777;SDS011;5946;51.770;8.548;2022-09-24T10:03:23;31.33;;;23.53;;
11777;SDS011;5946;51.770;8.548;2022-09-24T10:05:54;30.67;;;23.17;;
11777;SDS011;5946;51.770;8.548;2022-09-24T10:08:21;29.67;;;23.27;;
11777;SDS011;5946;51.770;8.548;2022-09-24T10:10:57;29.73;;;22.60;;
11777;SDS011;5946;51.770;8.548;2022-09-24T10:13:24;25.00;;;21.13;;
11777;SDS011;5946;51.770;8.548;2022-09-24T10:15:51;24.57;;;21.00;;
11777;SDS011;5946;51.770;8.548;2022-09-24T10:18:26;26.37;;;21.87;;
11777;SDS011;5946;51.770;8.548;2022-09-24T10:20:53;25.53;;;21.27;;
11777;SDS011;5946;51.770;8.548;2022-09-24T10:23:21;26.70;;;21.83;;
11777;SDS011;5946;51.770;8.548;2022-09-24T10:25:58;23.27;;;20.33;;
11777;SDS011;5946;51.770;8.548;2022-09-24T10:28:25;25.00;;;20.87;;
11777;SDS011;5946;51.770;8.548;2022-09-24T10:31:17;23.67;;;20.57;;
11777;SDS011;5946;51.770;8.548;2022-09-24T10:33:44;24.40;;;20.10;;
11777;SDS011;5946;51.770;8.548;2022-09-24T10:36:13;21.43;;;17.90;;
11777;SDS011;5946;51.770;8.548;2022-09-24T10:38:39;24.60;;;19.30;;
11777;SDS011;5946;51.770;8.548;2022-09-24T10:41:23;24.47;;;19.63;;
11777;SDS011;5946;51.770;8.548;2022-09-24T10:43:52;26.50;;;20.33;;
11777;SDS011;5946;51.770;8.548;2022-09-24T10:46:38;25.67;;;19.43;;
11777;SDS011;5946;51.770;8.548;2022-09-24T10:49:09;20.33;;;16.73;;
11777;SDS011;5946;51.770;8.548;2022-09-24T10:51:50;17.33;;;15.53;;
11777;SDS011;5946;51.770;8.548;2022-09-24T10:56:47;22.87;;;17.90;;
11777;SDS011;5946;51.770;8.548;2022-09-24T10:59:26;19.83;;;15.83;;
11777;SDS011;5946;51.770;8.548;2022-09-24T11:02:20;17.67;;;15.50;;
11777;SDS011;5946;51.770;8.548;2022-09-24T11:04:55;17.47;;;14.97;;
11777;SDS011;5946;51.770;8.548;2022-09-24T11:07:34;16.47;;;14.03;;
11777;SDS011;5946;51.770;8.548;2022-09-24T11:17:36;13.80;;;11.30;;
11777;SDS011;5946;51.770;8.548;2022-09-24T11:20:20;14.23;;;12.43;;
11777;SDS011;5946;51.770;8.548;2022-09-24T11:23:02;15.10;;;11.63;;
11777;SDS011;5946;51.770;8.548;2022-09-24T11:25:47;16.13;;;13.17;;
11777;SDS011;5946;51.770;8.548;2022-09-24T11:31:09;13.53;;;12.13;;
11777;SDS011;5946;51.770;8.548;2022-09-24T11:33:48;14.37;;;12.73;;
11777;SDS011;5946;51.770;8.548;2022-09-24T11:38:55;14.20;;;11.50;;
11777;SDS011;5946;51.770;8.548;2022-09-24T11:41:43;34.23;;;29.63;;
11777;SDS011;5946;51.770;8.548;2022-09-24T11:44:28;18.83;;;16.70;;
11777;SDS011;5946;51.770;8.548;2022-09-24T11:49:28;14.53;;;13.00;;
11777;SDS011;5946;51.770;8.548;2022-09-24T11:54:31;16.70;;;14.00;;
11777;SDS011;5946;51.770;8.548;2022-09-24T11:59:36;15.10;;;13.50;;
11777;SDS011;5946;51.770;8.548;2022-09-24T12:02:11;17.53;;;13.90;;
11777;SDS011;5946;51.770;8.548;2022-09-24T12:04:49;16.43;;;13.67;;
11777;SDS011;5946;51.770;8.548;2022-09-24T12:07:25;15.23;;;12.90;;
11777;SDS011;5946;51.770;8.548;2022-09-24T12:10:01;18.53;;;14.23;;
11777;SDS011;5946;51.770;8.548;2022-09-24T12:12:36;15.73;;;13.97;;
11777;SDS011;5946;51.770;8.548;2022-09-24T12:15:15;20.43;;;15.57;;
11777;SDS011;5946;51.770;8.548;2022-09-24T12:17:57;16.90;;;15.10;;
11777;SDS011;5946;51.770;8.548;2022-09-24T12:22:53;18.17;;;15.63;;
11777;SDS011;5946;51.770;8.548;2022-09-24T12:25:23;19.53;;;14.90;;
11777;SDS011;5946;51.770;8.548;2022-09-24T12:27:50;18.10;;;16.20;;
11777;SDS011;5946;51.770;8.548;2022-09-24T12:30:24;19.37;;;16.13;;
11777;SDS011;5946;51.770;8.548;2022-09-24T12:38:18;18.77;;;16.60;;
11777;SDS011;5946;51.770;8.548;2022-09-24T12:41:04;19.37;;;17.10;;
11777;SDS011;5946;51.770;8.548;2022-09-24T12:46:12;19.70;;;16.37;;
11777;SDS011;5946;51.770;8.548;2022-09-24T12:48:41;18.07;;;16.17;;
11777;SDS011;5946;51.770;8.548;2022-09-24T12:51:08;20.00;;;16.97;;
11777;SDS011;5946;51.770;8.548;2022-09-24T12:53:36;21.07;;;17.53;;
11777;SDS011;5946;51.770;8.548;2022-09-24T12:56:03;19.30;;;16.73;;
11777;SDS011;5946;51.770;8.548;2022-09-24T12:58:37;20.33;;;17.23;;
11777;SDS011;5946;51.770;8.548;2022-09-24T13:01:10;20.10;;;17.53;;
11777;SDS011;5946;51.770;8.548;2022-09-24T13:03:37;21.37;;;17.47;;
11777;SDS011;5946;51.770;8.548;2022-09-24T13:06:17;20.43;;;17.57;;
11777;SDS011;5946;51.770;8.548;2022-09-24T13:08:45;22.97;;;19.73;;
11777;SDS011;5946;51.770;8.548;2022-09-24T13:11:24;22.10;;;18.13;;
11777;SDS011;5946;51.770;8.548;2022-09-24T13:14:02;21.80;;;19.07;;
11777;SDS011;5946;51.770;8.548;2022-09-24T13:16:30;21.37;;;17.53;;
11777;SDS011;5946;51.770;8.548;2022-09-24T13:19:02;23.10;;;17.30;;
11777;SDS011;5946;51.770;8.548;2022-09-24T13:21:29;17.50;;;15.60;;
11777;SDS011;5946;51.770;8.548;2022-09-24T13:23:56;21.73;;;16.23;;
11777;SDS011;5946;51.770;8.548;2022-09-24T13:26:30;19.57;;;16.23;;
11777;SDS011;5946;51.770;8.548;2022-09-24T13:29:20;17.27;;;15.43;;
11777;SDS011;5946;51.770;8.548;2022-09-24T13:36:46;17.83;;;15.73;;
11777;SDS011;5946;51.770;8.548;2022-09-24T13:39:21;19.00;;;16.50;;
11777;SDS011;5946;51.770;8.548;2022-09-24T13:41:52;21.60;;;16.00;;
11777;SDS011;5946;51.770;8.548;2022-09-24T13:44:26;19.40;;;16.70;;
11777;SDS011;5946;51.770;8.548;2022-09-24T13:47:39;19.10;;;16.80;;
11777;SDS011;5946;51.770;8.548;2022-09-24T13:49:44;18.97;;;16.07;;
11777;SDS011;5946;51.770;8.548;2022-09-24T13:54:46;19.73;;;16.67;;
11777;SDS011;5946;51.770;8.548;2022-09-24T13:57:18;18.20;;;16.03;;
11777;SDS011;5946;51.770;8.548;2022-09-24T13:59:45;19.83;;;17.63;;
11777;SDS011;5946;51.770;8.548;2022-09-24T14:02:51;20.63;;;17.50;;
11777;SDS011;5946;51.770;8.548;2022-09-24T14:05:14;20.77;;;17.33;;
11777;SDS011;5946;51.770;8.548;2022-09-24T14:07:51;21.33;;;17.23;;
11777;SDS011;5946;51.770;8.548;2022-09-24T14:10:17;24.83;;;18.70;;
11777;SDS011;5946;51.770;8.548;2022-09-24T14:12:43;23.53;;;18.53;;
11777;SDS011;5946;51.770;8.548;2022-09-24T14:15:14;23.27;;;19.07;;
11777;SDS011;5946;51.770;8.548;2022-09-24T14:17:41;24.30;;;19.47;;
11777;SDS011;5946;51.770;8.548;2022-09-24T14:20:11;23.57;;;19.67;;
11777;SDS011;5946;51.770;8.548;2022-09-24T14:22:41;23.00;;;19.00;;
11777;SDS011;5946;51.770;8.548;2022-09-24T14:25:15;24.03;;;19.40;;
11777;SDS011;5946;51.770;8.548;2022-09-24T14:27:48;23.60;;;18.10;;
11777;SDS011;5946;51.770;8.548;2022-09-24T14:30:23;20.80;;;18.60;;
11777;SDS011;5946;51.770;8.548;2022-09-24T14:32:59;23.63;;;20.53;;
11777;SDS011;5946;51.770;8.548;2022-09-24T14:35:32;24.10;;;19.43;;
11777;SDS011;5946;51.770;8.548;2022-09-24T14:38:12;23.47;;;19.20;;
11777;SDS011;5946;51.770;8.548;2022-09-24T14:40:40;24.43;;;18.63;;
11777;SDS011;5946;51.770;8.548;2022-09-24T14:43:19;22.33;;;19.00;;
11777;SDS011;5946;51.770;8.548;2022-09-24T14:45:58;24.03;;;19.23;;
11777;SDS011;5946;51.770;8.548;2022-09-24T14:48:29;25.57;;;20.77;;
11777;SDS011;5946;51.770;8.548;2022-09-24T14:50:58;25.43;;;19.90;;
11777;SDS011;5946;51.770;8.548;2022-09-24T14:55:50;31.07;;;24.13;;
11777;SDS011;5946;51.770;8.548;2022-09-24T15:00:55;32.80;;;26.50;;
11777;SDS011;5946;51.770;8.548;2022-09-24T15:06:01;34.90;;;27.83;;
11777;SDS011;5946;51.770;8.548;2022-09-24T15:08:28;41.03;;;31.67;;
11777;SDS011;5946;51.770;8.548;2022-09-24T15:10:58;42.40;;;30.83;;
11777;SDS011;5946;51.770;8.548;2022-09-24T15:13:25;44.20;;;32.53;;
11777;SDS011;5946;51.770;8.548;2022-09-24T15:16:04;47.83;;;34.83;;
11777;SDS011;5946;51.770;8.548;2022-09-24T15:18:31;44.90;;;32.67;;
11777;SDS011;5946;51.770;8.548;2022-09-24T15:20:59;43.27;;;30.70;;
11777;SDS011;5946;51.770;8.548;2022-09-24T15:23:27;44.97;;;31.97;;
11777;SDS011;5946;51.770;8.548;2022-09-24T15:25:53;42.83;;;29.70;;
11777;SDS011;5946;51.770;8.548;2022-09-24T15:28:19;45.27;;;31.20;;
11777;SDS011;5946;51.770;8.548;2022-09-24T15:30:46;46.57;;;32.83;;
11777;SDS011;5946;51.770;8.548;2022-09-24T15:33:12;54.97;;;35.77;;
11777;SDS011;5946;51.770;8.548;2022-09-24T15:35:38;50.83;;;34.83;;
11777;SDS011;5946;51.770;8.548;2022-09-24T15:38:07;45.93;;;33.87;;
11777;SDS011;5946;51.770;8.548;2022-09-24T15:40:38;49.80;;;34.73;;
11777;SDS011;5946;51.770;8.548;2022-09-24T15:43:04;54.47;;;38.30;;
11777;SDS011;5946;51.770;8.548;2022-09-24T15:45:30;53.80;;;36.50;;
11777;SDS011;5946;51.770;8.548;2022-09-24T15:47:56;50.50;;;36.37;;
11777;SDS011;5946;51.770;8.548;2022-09-24T15:50:22;51.47;;;36.30;;
11777;SDS011;5946;51.770;8.548;2022-09-24T15:52:52;50.90;;;36.27;;
11777;SDS011;5946;51.770;8.548;2022-09-24T15:55:19;53.27;;;37.67;;
11777;SDS011;5946;51.770;8.548;2022-09-24T15:57:45;51.97;;;38.00;;
11777;SDS011;5946;51.770;8.548;2022-09-24T16:00:15;57.33;;;38.90;;
11777;SDS011;5946;51.770;8.548;2022-09-24T16:02:42;48.67;;;36.47;;
11777;SDS011;5946;51.770;8.548;2022-09-24T16:05:13;47.80;;;33.70;;